Auance, South Dakota
Current Conditions -  °F | °C
As of 1:55 AM on Thursday 23 Oct 2014 (Local Time) from KPHP Reporting Station
Clear Clear  
Wind Chill: 27°   Ceiling: Unl
Heat Index: 32°   Visibility: 10mi
Dew Point: 29°   Wind: 5mph
Humidity: 88%   Direction: 300°WNW
Pressure: 30.01"   Gusts: NA
Location:  44.8511°N, 102.128°W
Report Text: KPHP 230755Z AUTO 30004KT 10SM CLR 00/M02 A3001 RMK AO2 SLP163 T00001017 $
Loading
Personal Weather Stations






























Interactive Weather Map
Tropical Storm Tracking
New forecast layout! Learn more

10-Day Weather Forecast

Advertisements
Track Severe Weather on mobile